sensor_id;sensor_type;location;lat;lon;timestamp;P1;durP1;ratioP1;P2;durP2;ratioP2
49962;SDS011;36180;57.678;11.910;2022-08-19T00:02:25;25.15;;;16.35;;
49962;SDS011;36180;57.678;11.910;2022-08-19T00:04:52;27.05;;;15.60;;
49962;SDS011;36180;57.678;11.910;2022-08-19T00:07:19;26.40;;;16.17;;
49962;SDS011;36180;57.678;11.910;2022-08-19T00:09:46;26.55;;;15.93;;
49962;SDS011;36180;57.678;11.910;2022-08-19T00:12:13;28.95;;;18.02;;
49962;SDS011;36180;57.678;11.910;2022-08-19T00:14:41;28.73;;;18.17;;
49962;SDS011;36180;57.678;11.910;2022-08-19T00:17:09;23.83;;;16.63;;
49962;SDS011;36180;57.678;11.910;2022-08-19T00:19:36;27.05;;;17.92;;
49962;SDS011;36180;57.678;11.910;2022-08-19T00:22:04;26.55;;;17.30;;
49962;SDS011;36180;57.678;11.910;2022-08-19T00:24:31;25.38;;;16.83;;
49962;SDS011;36180;57.678;11.910;2022-08-19T00:26:58;23.95;;;15.77;;
49962;SDS011;36180;57.678;11.910;2022-08-19T00:29:26;22.67;;;15.88;;
49962;SDS011;36180;57.678;11.910;2022-08-19T00:31:54;26.90;;;15.82;;
49962;SDS011;36180;57.678;11.910;2022-08-19T00:34:24;27.25;;;15.50;;
49962;SDS011;36180;57.678;11.910;2022-08-19T00:36:53;24.00;;;15.80;;
49962;SDS011;36180;57.678;11.910;2022-08-19T00:39:21;27.90;;;16.33;;
49962;SDS011;36180;57.678;11.910;2022-08-19T00:41:48;23.88;;;16.05;;
49962;SDS011;36180;57.678;11.910;2022-08-19T00:44:16;25.35;;;14.98;;
49962;SDS011;36180;57.678;11.910;2022-08-19T00:46:46;27.48;;;17.40;;
49962;SDS011;36180;57.678;11.910;2022-08-19T00:49:15;26.58;;;16.20;;
49962;SDS011;36180;57.678;11.910;2022-08-19T00:51:47;27.13;;;16.02;;
49962;SDS011;36180;57.678;11.910;2022-08-19T00:56:43;24.27;;;14.52;;
49962;SDS011;36180;57.678;11.910;2022-08-19T00:59:11;27.20;;;14.70;;
49962;SDS011;36180;57.678;11.910;2022-08-19T01:01:39;23.52;;;14.38;;
49962;SDS011;36180;57.678;11.910;2022-08-19T01:04:07;25.42;;;15.70;;
49962;SDS011;36180;57.678;11.910;2022-08-19T01:06:35;27.55;;;16.48;;
49962;SDS011;36180;57.678;11.910;2022-08-19T01:09:04;25.27;;;15.52;;
49962;SDS011;36180;57.678;11.910;2022-08-19T01:11:31;34.00;;;16.80;;
49962;SDS011;36180;57.678;11.910;2022-08-19T01:14:02;29.17;;;15.93;;
49962;SDS011;36180;57.678;11.910;2022-08-19T01:16:29;24.80;;;15.68;;
49962;SDS011;36180;57.678;11.910;2022-08-19T01:18:57;26.25;;;16.73;;
49962;SDS011;36180;57.678;11.910;2022-08-19T01:21:24;29.25;;;16.58;;
49962;SDS011;36180;57.678;11.910;2022-08-19T01:23:56;29.73;;;17.98;;
49962;SDS011;36180;57.678;11.910;2022-08-19T01:26:24;30.67;;;19.67;;
49962;SDS011;36180;57.678;11.910;2022-08-19T01:28:53;32.80;;;18.20;;
49962;SDS011;36180;57.678;11.910;2022-08-19T01:31:23;31.95;;;17.70;;
49962;SDS011;36180;57.678;11.910;2022-08-19T01:33:52;26.15;;;17.13;;
49962;SDS011;36180;57.678;11.910;2022-08-19T01:36:22;31.92;;;19.55;;
49962;SDS011;36180;57.678;11.910;2022-08-19T01:38:51;29.33;;;18.13;;
49962;SDS011;36180;57.678;11.910;2022-08-19T01:41:20;30.55;;;18.38;;
49962;SDS011;36180;57.678;11.910;2022-08-19T01:43:48;31.50;;;18.98;;
49962;SDS011;36180;57.678;11.910;2022-08-19T01:46:16;28.50;;;19.05;;
49962;SDS011;36180;57.678;11.910;2022-08-19T01:48:43;32.95;;;18.80;;
49962;SDS011;36180;57.678;11.910;2022-08-19T01:51:11;35.00;;;18.42;;
49962;SDS011;36180;57.678;11.910;2022-08-19T01:53:40;32.28;;;18.65;;
49962;SDS011;36180;57.678;11.910;2022-08-19T01:56:07;37.80;;;19.90;;
49962;SDS011;36180;57.678;11.910;2022-08-19T01:58:38;32.67;;;18.83;;
49962;SDS011;36180;57.678;11.910;2022-08-19T02:01:16;29.27;;;18.05;;
49962;SDS011;36180;57.678;11.910;2022-08-19T02:03:43;27.33;;;17.63;;
49962;SDS011;36180;57.678;11.910;2022-08-19T02:06:10;29.55;;;17.17;;
49962;SDS011;36180;57.678;11.910;2022-08-19T02:08:37;28.63;;;15.77;;
49962;SDS011;36180;57.678;11.910;2022-08-19T02:11:05;24.60;;;14.98;;
49962;SDS011;36180;57.678;11.910;2022-08-19T02:13:33;26.67;;;18.00;;
49962;SDS011;36180;57.678;11.910;2022-08-19T02:16:02;25.08;;;15.98;;
49962;SDS011;36180;57.678;11.910;2022-08-19T02:18:29;24.60;;;16.58;;
49962;SDS011;36180;57.678;11.910;2022-08-19T02:20:56;27.33;;;16.77;;
49962;SDS011;36180;57.678;11.910;2022-08-19T02:23:23;26.90;;;16.20;;
49962;SDS011;36180;57.678;11.910;2022-08-19T02:25:51;24.92;;;15.80;;
49962;SDS011;36180;57.678;11.910;2022-08-19T02:28:18;25.33;;;15.40;;
49962;SDS011;36180;57.678;11.910;2022-08-19T02:30:46;21.25;;;15.70;;
49962;SDS011;36180;57.678;11.910;2022-08-19T02:33:14;26.98;;;16.77;;
49962;SDS011;36180;57.678;11.910;2022-08-19T02:35:42;29.23;;;16.65;;
49962;SDS011;36180;57.678;11.910;2022-08-19T02:38:09;24.90;;;16.48;;
49962;SDS011;36180;57.678;11.910;2022-08-19T02:40:55;24.15;;;15.13;;
49962;SDS011;36180;57.678;11.910;2022-08-19T02:43:22;29.80;;;16.17;;
49962;SDS011;36180;57.678;11.910;2022-08-19T02:45:54;28.38;;;16.35;;
49962;SDS011;36180;57.678;11.910;2022-08-19T02:48:22;27.23;;;16.58;;
49962;SDS011;36180;57.678;11.910;2022-08-19T02:50:51;28.70;;;15.70;;
49962;SDS011;36180;57.678;11.910;2022-08-19T02:53:20;31.02;;;16.45;;
49962;SDS011;36180;57.678;11.910;2022-08-19T02:55:48;29.40;;;15.80;;
49962;SDS011;36180;57.678;11.910;2022-08-19T02:58:16;23.92;;;16.40;;
49962;SDS011;36180;57.678;11.910;2022-08-19T03:00:43;22.95;;;14.20;;
49962;SDS011;36180;57.678;11.910;2022-08-19T03:03:13;28.25;;;13.77;;
49962;SDS011;36180;57.678;11.910;2022-08-19T03:05:40;32.47;;;14.25;;
49962;SDS011;36180;57.678;11.910;2022-08-19T03:08:08;26.08;;;14.07;;
49962;SDS011;36180;57.678;11.910;2022-08-19T03:10:41;24.95;;;12.95;;
49962;SDS011;36180;57.678;11.910;2022-08-19T03:13:10;23.10;;;13.00;;
49962;SDS011;36180;57.678;11.910;2022-08-19T03:15:41;20.75;;;13.38;;
49962;SDS011;36180;57.678;11.910;2022-08-19T03:18:10;23.83;;;13.60;;
49962;SDS011;36180;57.678;11.910;2022-08-19T03:20:42;17.85;;;12.15;;
49962;SDS011;36180;57.678;11.910;2022-08-19T03:23:10;18.35;;;12.98;;
49962;SDS011;36180;57.678;11.910;2022-08-19T03:25:39;20.05;;;12.75;;
49962;SDS011;36180;57.678;11.910;2022-08-19T03:28:08;19.88;;;13.05;;
49962;SDS011;36180;57.678;11.910;2022-08-19T03:30:37;21.05;;;12.90;;
49962;SDS011;36180;57.678;11.910;2022-08-19T03:33:04;20.75;;;12.98;;
49962;SDS011;36180;57.678;11.910;2022-08-19T03:35:31;22.65;;;12.75;;
49962;SDS011;36180;57.678;11.910;2022-08-19T03:38:03;24.23;;;13.15;;
49962;SDS011;36180;57.678;11.910;2022-08-19T03:40:30;19.33;;;12.27;;
49962;SDS011;36180;57.678;11.910;2022-08-19T03:42:57;19.83;;;14.20;;
49962;SDS011;36180;57.678;11.910;2022-08-19T03:45:24;19.27;;;13.57;;
49962;SDS011;36180;57.678;11.910;2022-08-19T03:47:52;18.52;;;14.02;;
49962;SDS011;36180;57.678;11.910;2022-08-19T03:50:19;25.25;;;15.13;;
49962;SDS011;36180;57.678;11.910;2022-08-19T03:52:48;25.60;;;13.90;;
49962;SDS011;36180;57.678;11.910;2022-08-19T03:55:17;27.50;;;14.60;;
49962;SDS011;36180;57.678;11.910;2022-08-19T03:57:45;21.40;;;15.30;;
49962;SDS011;36180;57.678;11.910;2022-08-19T04:00:14;25.42;;;15.50;;
49962;SDS011;36180;57.678;11.910;2022-08-19T04:02:42;24.45;;;16.20;;
49962;SDS011;36180;57.678;11.910;2022-08-19T04:05:09;22.33;;;16.08;;
49962;SDS011;36180;57.678;11.910;2022-08-19T04:07:36;24.50;;;15.45;;
49962;SDS011;36180;57.678;11.910;2022-08-19T04:10:03;22.98;;;14.63;;
49962;SDS011;36180;57.678;11.910;2022-08-19T04:12:32;26.92;;;17.08;;
49962;SDS011;36180;57.678;11.910;2022-08-19T04:14:59;25.13;;;17.13;;
49962;SDS011;36180;57.678;11.910;2022-08-19T04:17:26;25.20;;;16.58;;
49962;SDS011;36180;57.678;11.910;2022-08-19T04:19:53;25.33;;;16.98;;
49962;SDS011;36180;57.678;11.910;2022-08-19T04:22:20;24.10;;;16.27;;
49962;SDS011;36180;57.678;11.910;2022-08-19T04:24:47;25.23;;;16.40;;
49962;SDS011;36180;57.678;11.910;2022-08-19T04:27:14;24.20;;;15.55;;
49962;SDS011;36180;57.678;11.910;2022-08-19T04:29:43;24.45;;;16.42;;
49962;SDS011;36180;57.678;11.910;2022-08-19T04:32:10;23.27;;;16.45;;
49962;SDS011;36180;57.678;11.910;2022-08-19T04:34:40;27.23;;;17.50;;
49962;SDS011;36180;57.678;11.910;2022-08-19T04:37:08;27.15;;;17.35;;
49962;SDS011;36180;57.678;11.910;2022-08-19T04:39:38;24.67;;;17.02;;
49962;SDS011;36180;57.678;11.910;2022-08-19T04:42:22;23.23;;;16.58;;
49962;SDS011;36180;57.678;11.910;2022-08-19T04:45:06;20.95;;;16.95;;
49962;SDS011;36180;57.678;11.910;2022-08-19T04:47:35;26.25;;;17.60;;
49962;SDS011;36180;57.678;11.910;2022-08-19T04:50:03;30.60;;;19.17;;
49962;SDS011;36180;57.678;11.910;2022-08-19T04:52:32;28.00;;;20.35;;
49962;SDS011;36180;57.678;11.910;2022-08-19T04:54:59;30.05;;;21.23;;
49962;SDS011;36180;57.678;11.910;2022-08-19T04:57:26;30.65;;;21.23;;
49962;SDS011;36180;57.678;11.910;2022-08-19T04:59:54;34.63;;;21.98;;
49962;SDS011;36180;57.678;11.910;2022-08-19T05:02:23;35.22;;;22.58;;
49962;SDS011;36180;57.678;11.910;2022-08-19T05:04:50;39.53;;;24.25;;
49962;SDS011;36180;57.678;11.910;2022-08-19T05:07:17;35.50;;;23.17;;
49962;SDS011;36180;57.678;11.910;2022-08-19T05:09:44;39.50;;;26.00;;
49962;SDS011;36180;57.678;11.910;2022-08-19T05:12:11;40.72;;;25.75;;
49962;SDS011;36180;57.678;11.910;2022-08-19T05:14:38;41.42;;;27.38;;
49962;SDS011;36180;57.678;11.910;2022-08-19T05:17:05;42.90;;;25.95;;
49962;SDS011;36180;57.678;11.910;2022-08-19T05:19:33;41.22;;;25.60;;
49962;SDS011;36180;57.678;11.910;2022-08-19T05:22:18;43.92;;;25.58;;
49962;SDS011;36180;57.678;11.910;2022-08-19T05:27:29;35.95;;;24.30;;
49962;SDS011;36180;57.678;11.910;2022-08-19T05:29:56;42.55;;;25.23;;
49962;SDS011;36180;57.678;11.910;2022-08-19T05:32:23;36.40;;;25.10;;
49962;SDS011;36180;57.678;11.910;2022-08-19T05:34:51;35.53;;;23.85;;
49962;SDS011;36180;57.678;11.910;2022-08-19T05:37:18;40.97;;;25.13;;
49962;SDS011;36180;57.678;11.910;2022-08-19T05:39:45;39.22;;;25.88;;
49962;SDS011;36180;57.678;11.910;2022-08-19T05:42:14;41.05;;;25.88;;
49962;SDS011;36180;57.678;11.910;2022-08-19T05:44:42;39.38;;;23.90;;
49962;SDS011;36180;57.678;11.910;2022-08-19T05:47:11;34.63;;;23.50;;
49962;SDS011;36180;57.678;11.910;2022-08-19T05:49:40;33.40;;;22.73;;
49962;SDS011;36180;57.678;11.910;2022-08-19T05:52:10;36.88;;;24.33;;
49962;SDS011;36180;57.678;11.910;2022-08-19T05:54:38;32.83;;;22.10;;
49962;SDS011;36180;57.678;11.910;2022-08-19T05:57:08;30.00;;;21.52;;
49962;SDS011;36180;57.678;11.910;2022-08-19T05:59:35;29.15;;;20.98;;
49962;SDS011;36180;57.678;11.910;2022-08-19T06:02:03;30.30;;;22.02;;
49962;SDS011;36180;57.678;11.910;2022-08-19T06:04:31;33.60;;;21.52;;
49962;SDS011;36180;57.678;11.910;2022-08-19T06:06:59;28.67;;;20.27;;
49962;SDS011;36180;57.678;11.910;2022-08-19T06:09:29;34.95;;;20.63;;
49962;SDS011;36180;57.678;11.910;2022-08-19T06:11:57;28.73;;;20.48;;
49962;SDS011;36180;57.678;11.910;2022-08-19T06:14:26;23.20;;;19.15;;
49962;SDS011;36180;57.678;11.910;2022-08-19T06:16:55;22.70;;;19.08;;
49962;SDS011;36180;57.678;11.910;2022-08-19T06:19:23;26.00;;;19.05;;
49962;SDS011;36180;57.678;11.910;2022-08-19T06:21:51;27.05;;;19.83;;
49962;SDS011;36180;57.678;11.910;2022-08-19T06:24:20;25.23;;;19.27;;
49962;SDS011;36180;57.678;11.910;2022-08-19T06:26:51;21.00;;;17.70;;
49962;SDS011;36180;57.678;11.910;2022-08-19T06:29:20;23.05;;;18.45;;
49962;SDS011;36180;57.678;11.910;2022-08-19T06:31:50;27.27;;;19.15;;
49962;SDS011;36180;57.678;11.910;2022-08-19T06:34:18;21.15;;;17.65;;
49962;SDS011;36180;57.678;11.910;2022-08-19T06:36:47;21.33;;;17.17;;
49962;SDS011;36180;57.678;11.910;2022-08-19T06:39:16;19.65;;;16.38;;
49962;SDS011;36180;57.678;11.910;2022-08-19T06:41:45;17.58;;;15.48;;
49962;SDS011;36180;57.678;11.910;2022-08-19T06:44:17;15.68;;;14.02;;
49962;SDS011;36180;57.678;11.910;2022-08-19T06:46:45;14.82;;;13.15;;
49962;SDS011;36180;57.678;11.910;2022-08-19T06:49:13;16.75;;;13.32;;
49962;SDS011;36180;57.678;11.910;2022-08-19T06:51:41;14.85;;;13.23;;
49962;SDS011;36180;57.678;11.910;2022-08-19T06:54:08;14.10;;;12.70;;
49962;SDS011;36180;57.678;11.910;2022-08-19T06:56:36;16.50;;;11.73;;
49962;SDS011;36180;57.678;11.910;2022-08-19T06:59:04;12.35;;;10.98;;
49962;SDS011;36180;57.678;11.910;2022-08-19T07:01:35;12.93;;;11.63;;
49962;SDS011;36180;57.678;11.910;2022-08-19T07:04:04;13.90;;;12.43;;
49962;SDS011;36180;57.678;11.910;2022-08-19T07:06:31;13.02;;;11.73;;
49962;SDS011;36180;57.678;11.910;2022-08-19T07:08:58;12.32;;;11.13;;
49962;SDS011;36180;57.678;11.910;2022-08-19T07:11:26;14.88;;;12.15;;
49962;SDS011;36180;57.678;11.910;2022-08-19T07:13:53;12.57;;;11.30;;
49962;SDS011;36180;57.678;11.910;2022-08-19T07:16:20;12.88;;;11.57;;
49962;SDS011;36180;57.678;11.910;2022-08-19T07:18:49;13.70;;;12.10;;
49962;SDS011;36180;57.678;11.910;2022-08-19T07:21:18;13.77;;;12.38;;
49962;SDS011;36180;57.678;11.910;2022-08-19T07:23:46;13.13;;;11.82;;
49962;SDS011;36180;57.678;11.910;2022-08-19T07:26:15;13.18;;;11.80;;
49962;SDS011;36180;57.678;11.910;2022-08-19T07:28:43;14.10;;;11.50;;
49962;SDS011;36180;57.678;11.910;2022-08-19T07:31:11;13.00;;;11.70;;
49962;SDS011;36180;57.678;11.910;2022-08-19T07:33:40;13.65;;;12.35;;
49962;SDS011;36180;57.678;11.910;2022-08-19T07:36:10;13.63;;;12.32;;
49962;SDS011;36180;57.678;11.910;2022-08-19T07:38:39;13.25;;;11.95;;
49962;SDS011;36180;57.678;11.910;2022-08-19T07:41:06;14.02;;;11.95;;
49962;SDS011;36180;57.678;11.910;2022-08-19T07:43:33;13.80;;;12.35;;
49962;SDS011;36180;57.678;11.910;2022-08-19T07:46:01;14.30;;;13.00;;
49962;SDS011;36180;57.678;11.910;2022-08-19T07:48:28;13.55;;;12.18;;
49962;SDS011;36180;57.678;11.910;2022-08-19T07:50:57;13.77;;;11.52;;
49962;SDS011;36180;57.678;11.910;2022-08-19T07:53:28;14.05;;;12.65;;
49962;SDS011;36180;57.678;11.910;2022-08-19T07:55:58;12.85;;;11.55;;
49962;SDS011;36180;57.678;11.910;2022-08-19T07:58:29;12.82;;;11.52;;
49962;SDS011;36180;57.678;11.910;2022-08-19T08:00:58;12.85;;;11.60;;
49962;SDS011;36180;57.678;11.910;2022-08-19T08:03:26;14.27;;;12.93;;
49962;SDS011;36180;57.678;11.910;2022-08-19T08:08:53;12.65;;;11.35;;
49962;SDS011;36180;57.678;11.910;2022-08-19T08:11:43;14.07;;;12.68;;
49962;SDS011;36180;57.678;11.910;2022-08-19T08:14:14;12.90;;;11.70;;
49962;SDS011;36180;57.678;11.910;2022-08-19T08:16:42;14.55;;;11.85;;
49962;SDS011;36180;57.678;11.910;2022-08-19T08:19:11;13.15;;;11.82;;
49962;SDS011;36180;57.678;11.910;2022-08-19T08:21:39;14.10;;;11.82;;
49962;SDS011;36180;57.678;11.910;2022-08-19T08:24:09;18.50;;;14.13;;
49962;SDS011;36180;57.678;11.910;2022-08-19T08:26:36;13.65;;;12.45;;
49962;SDS011;36180;57.678;11.910;2022-08-19T08:29:03;14.52;;;13.13;;
49962;SDS011;36180;57.678;11.910;2022-08-19T08:31:32;13.30;;;12.00;;
49962;SDS011;36180;57.678;11.910;2022-08-19T08:34:00;14.20;;;12.02;;
49962;SDS011;36180;57.678;11.910;2022-08-19T08:36:27;13.52;;;12.23;;
49962;SDS011;36180;57.678;11.910;2022-08-19T08:38:58;14.40;;;12.55;;
49962;SDS011;36180;57.678;11.910;2022-08-19T08:41:28;16.77;;;12.25;;
49962;SDS011;36180;57.678;11.910;2022-08-19T08:43:57;13.52;;;11.15;;
49962;SDS011;36180;57.678;11.910;2022-08-19T08:46:27;13.55;;;12.23;;
49962;SDS011;36180;57.678;11.910;2022-08-19T08:49:05;14.30;;;12.48;;
49962;SDS011;36180;57.678;11.910;2022-08-19T08:51:38;13.38;;;12.07;;
49962;SDS011;36180;57.678;11.910;2022-08-19T08:54:10;14.33;;;12.80;;
49962;SDS011;36180;57.678;11.910;2022-08-19T08:56:41;11.35;;;10.35;;
49962;SDS011;36180;57.678;11.910;2022-08-19T08:59:12;13.35;;;11.95;;
49962;SDS011;36180;57.678;11.910;2022-08-19T09:01:42;13.38;;;11.98;;
49962;SDS011;36180;57.678;11.910;2022-08-19T09:04:09;14.60;;;12.90;;
49962;SDS011;36180;57.678;11.910;2022-08-19T09:06:39;17.13;;;14.80;;
49962;SDS011;36180;57.678;11.910;2022-08-19T09:09:17;15.40;;;13.18;;
49962;SDS011;36180;57.678;11.910;2022-08-19T09:11:49;15.07;;;11.95;;
49962;SDS011;36180;57.678;11.910;2022-08-19T09:14:28;13.30;;;11.95;;
49962;SDS011;36180;57.678;11.910;2022-08-19T09:17:00;16.58;;;11.82;;
49962;SDS011;36180;57.678;11.910;2022-08-19T09:19:29;17.23;;;11.88;;
49962;SDS011;36180;57.678;11.910;2022-08-19T09:21:56;14.40;;;11.60;;
49962;SDS011;36180;57.678;11.910;2022-08-19T09:24:25;15.50;;;11.07;;
49962;SDS011;36180;57.678;11.910;2022-08-19T09:26:53;16.98;;;10.70;;
49962;SDS011;36180;57.678;11.910;2022-08-19T09:29:20;12.68;;;10.18;;
49962;SDS011;36180;57.678;11.910;2022-08-19T09:31:47;11.77;;;10.07;;
49962;SDS011;36180;57.678;11.910;2022-08-19T09:34:15;11.88;;;9.98;;
49962;SDS011;36180;57.678;11.910;2022-08-19T09:36:42;11.45;;;9.68;;
49962;SDS011;36180;57.678;11.910;2022-08-19T09:39:09;12.80;;;9.20;;
49962;SDS011;36180;57.678;11.910;2022-08-19T09:41:36;9.80;;;8.80;;
49962;SDS011;36180;57.678;11.910;2022-08-19T09:44:05;13.35;;;10.25;;
49962;SDS011;36180;57.678;11.910;2022-08-19T09:46:32;12.55;;;9.75;;
49962;SDS011;36180;57.678;11.910;2022-08-19T09:48:59;11.73;;;9.52;;
49962;SDS011;36180;57.678;11.910;2022-08-19T09:51:27;14.85;;;10.60;;
49962;SDS011;36180;57.678;11.910;2022-08-19T09:53:54;17.55;;;11.10;;
49962;SDS011;36180;57.678;11.910;2022-08-19T09:56:25;18.23;;;10.10;;
49962;SDS011;36180;57.678;11.910;2022-08-19T09:58:53;16.90;;;10.95;;
49962;SDS011;36180;57.678;11.910;2022-08-19T10:01:22;12.85;;;10.65;;
49962;SDS011;36180;57.678;11.910;2022-08-19T10:03:51;14.63;;;11.27;;
49962;SDS011;36180;57.678;11.910;2022-08-19T10:06:20;12.82;;;10.30;;
49962;SDS011;36180;57.678;11.910;2022-08-19T10:08:47;11.48;;;9.63;;
49962;SDS011;36180;57.678;11.910;2022-08-19T10:11:14;20.85;;;9.75;;
49962;SDS011;36180;57.678;11.910;2022-08-19T10:13:42;12.98;;;8.43;;
49962;SDS011;36180;57.678;11.910;2022-08-19T10:16:11;11.93;;;8.60;;
49962;SDS011;36180;57.678;11.910;2022-08-19T10:18:42;9.65;;;7.97;;
49962;SDS011;36180;57.678;11.910;2022-08-19T10:21:10;11.75;;;8.07;;
49962;SDS011;36180;57.678;11.910;2022-08-19T10:23:39;10.23;;;7.88;;
49962;SDS011;36180;57.678;11.910;2022-08-19T10:26:11;9.43;;;7.97;;
49962;SDS011;36180;57.678;11.910;2022-08-19T10:28:39;11.18;;;7.88;;
49962;SDS011;36180;57.678;11.910;2022-08-19T10:31:06;10.48;;;7.70;;
49962;SDS011;36180;57.678;11.910;2022-08-19T10:33:34;10.13;;;7.72;;
49962;SDS011;36180;57.678;11.910;2022-08-19T10:36:05;8.93;;;7.65;;
49962;SDS011;36180;57.678;11.910;2022-08-19T10:38:33;10.13;;;7.80;;
49962;SDS011;36180;57.678;11.910;2022-08-19T10:41:06;7.95;;;6.80;;
49962;SDS011;36180;57.678;11.910;2022-08-19T10:43:33;8.23;;;7.20;;
49962;SDS011;36180;57.678;11.910;2022-08-19T10:46:03;7.97;;;6.80;;
49962;SDS011;36180;57.678;11.910;2022-08-19T10:48:31;7.80;;;6.63;;
49962;SDS011;36180;57.678;11.910;2022-08-19T10:50:58;8.27;;;5.45;;
49962;SDS011;36180;57.678;11.910;2022-08-19T10:53:44;12.25;;;6.07;;
49962;SDS011;36180;57.678;11.910;2022-08-19T10:56:11;8.63;;;5.57;;
49962;SDS011;36180;57.678;11.910;2022-08-19T10:58:57;10.23;;;5.93;;
49962;SDS011;36180;57.678;11.910;2022-08-19T11:01:24;11.10;;;5.95;;
49962;SDS011;36180;57.678;11.910;2022-08-19T11:03:51;8.20;;;5.90;;
49962;SDS011;36180;57.678;11.910;2022-08-19T11:06:19;6.25;;;5.00;;
49962;SDS011;36180;57.678;11.910;2022-08-19T11:08:47;8.90;;;5.28;;
49962;SDS011;36180;57.678;11.910;2022-08-19T11:11:14;9.98;;;5.50;;
49962;SDS011;36180;57.678;11.910;2022-08-19T11:13:41;9.48;;;5.07;;
49962;SDS011;36180;57.678;11.910;2022-08-19T11:16:10;10.05;;;4.70;;
49962;SDS011;36180;57.678;11.910;2022-08-19T11:18:41;11.18;;;4.40;;
49962;SDS011;36180;57.678;11.910;2022-08-19T11:21:10;11.52;;;4.63;;
49962;SDS011;36180;57.678;11.910;2022-08-19T11:23:38;8.82;;;4.30;;
49962;SDS011;36180;57.678;11.910;2022-08-19T11:26:07;7.88;;;4.20;;
49962;SDS011;36180;57.678;11.910;2022-08-19T11:28:34;6.45;;;5.03;;
49962;SDS011;36180;57.678;11.910;2022-08-19T11:31:01;10.93;;;4.57;;
49962;SDS011;36180;57.678;11.910;2022-08-19T11:33:29;9.80;;;4.70;;
49962;SDS011;36180;57.678;11.910;2022-08-19T11:35:58;6.50;;;4.45;;
49962;SDS011;36180;57.678;11.910;2022-08-19T11:38:26;8.35;;;4.28;;
49962;SDS011;36180;57.678;11.910;2022-08-19T11:40:54;7.82;;;5.15;;
49962;SDS011;36180;57.678;11.910;2022-08-19T11:43:23;8.10;;;4.50;;
49962;SDS011;36180;57.678;11.910;2022-08-19T11:45:51;6.95;;;4.97;;
49962;SDS011;36180;57.678;11.910;2022-08-19T11:48:19;7.07;;;5.60;;
49962;SDS011;36180;57.678;11.910;2022-08-19T11:50:47;8.90;;;6.03;;
49962;SDS011;36180;57.678;11.910;2022-08-19T11:53:14;12.85;;;6.82;;
49962;SDS011;36180;57.678;11.910;2022-08-19T11:55:42;8.90;;;5.55;;
49962;SDS011;36180;57.678;11.910;2022-08-19T11:58:10;11.18;;;5.63;;
49962;SDS011;36180;57.678;11.910;2022-08-19T12:00:39;9.80;;;5.03;;
49962;SDS011;36180;57.678;11.910;2022-08-19T12:03:07;8.70;;;5.10;;
49962;SDS011;36180;57.678;11.910;2022-08-19T12:05:36;9.35;;;5.55;;
49962;SDS011;36180;57.678;11.910;2022-08-19T12:08:03;10.52;;;4.55;;
49962;SDS011;36180;57.678;11.910;2022-08-19T12:10:31;6.53;;;4.22;;
49962;SDS011;36180;57.678;11.910;2022-08-19T12:12:59;7.72;;;4.50;;
49962;SDS011;36180;57.678;11.910;2022-08-19T12:15:25;8.18;;;5.05;;
49962;SDS011;36180;57.678;11.910;2022-08-19T12:17:56;12.88;;;5.10;;
49962;SDS011;36180;57.678;11.910;2022-08-19T12:20:24;6.50;;;3.83;;
49962;SDS011;36180;57.678;11.910;2022-08-19T12:22:51;6.57;;;4.32;;
49962;SDS011;36180;57.678;11.910;2022-08-19T12:25:18;8.02;;;4.22;;
49962;SDS011;36180;57.678;11.910;2022-08-19T12:27:45;8.77;;;4.45;;
49962;SDS011;36180;57.678;11.910;2022-08-19T12:30:13;11.35;;;4.47;;
49962;SDS011;36180;57.678;11.910;2022-08-19T12:32:40;8.80;;;3.53;;
49962;SDS011;36180;57.678;11.910;2022-08-19T12:35:09;9.63;;;4.43;;
49962;SDS011;36180;57.678;11.910;2022-08-19T12:37:36;8.95;;;4.50;;
49962;SDS011;36180;57.678;11.910;2022-08-19T12:40:04;13.38;;;4.43;;
49962;SDS011;36180;57.678;11.910;2022-08-19T12:42:31;6.35;;;3.95;;
49962;SDS011;36180;57.678;11.910;2022-08-19T12:44:59;9.00;;;4.15;;
49962;SDS011;36180;57.678;11.910;2022-08-19T12:47:26;9.85;;;4.22;;
49962;SDS011;36180;57.678;11.910;2022-08-19T12:49:53;7.35;;;4.03;;
49962;SDS011;36180;57.678;11.910;2022-08-19T12:52:22;6.63;;;3.70;;
49962;SDS011;36180;57.678;11.910;2022-08-19T12:54:51;11.38;;;4.28;;
49962;SDS011;36180;57.678;11.910;2022-08-19T12:57:19;7.22;;;3.50;;
49962;SDS011;36180;57.678;11.910;2022-08-19T12:59:46;12.38;;;3.80;;
49962;SDS011;36180;57.678;11.910;2022-08-19T13:02:13;11.77;;;4.30;;
49962;SDS011;36180;57.678;11.910;2022-08-19T13:04:40;11.75;;;3.60;;
49962;SDS011;36180;57.678;11.910;2022-08-19T13:07:07;12.93;;;3.78;;
49962;SDS011;36180;57.678;11.910;2022-08-19T13:09:36;8.30;;;4.43;;
49962;SDS011;36180;57.678;11.910;2022-08-19T13:12:06;7.23;;;3.50;;
49962;SDS011;36180;57.678;11.910;2022-08-19T13:14:38;6.68;;;3.78;;
49962;SDS011;36180;57.678;11.910;2022-08-19T13:17:05;10.10;;;4.03;;
49962;SDS011;36180;57.678;11.910;2022-08-19T13:19:35;11.20;;;4.00;;
49962;SDS011;36180;57.678;11.910;2022-08-19T13:22:02;9.82;;;3.42;;
49962;SDS011;36180;57.678;11.910;2022-08-19T13:24:30;7.07;;;3.95;;
49962;SDS011;36180;57.678;11.910;2022-08-19T13:27:00;5.93;;;3.80;;
49962;SDS011;36180;57.678;11.910;2022-08-19T13:29:27;13.43;;;4.13;;
49962;SDS011;36180;57.678;11.910;2022-08-19T13:32:12;7.95;;;3.78;;
49962;SDS011;36180;57.678;11.910;2022-08-19T13:34:56;4.88;;;3.58;;
49962;SDS011;36180;57.678;11.910;2022-08-19T13:37:23;7.28;;;3.70;;
49962;SDS011;36180;57.678;11.910;2022-08-19T13:40:05;4.38;;;3.33;;
49962;SDS011;36180;57.678;11.910;2022-08-19T13:42:34;6.88;;;3.58;;
49962;SDS011;36180;57.678;11.910;2022-08-19T13:45:01;9.45;;;3.67;;
49962;SDS011;36180;57.678;11.910;2022-08-19T13:47:28;7.55;;;3.28;;
49962;SDS011;36180;57.678;11.910;2022-08-19T13:49:55;5.78;;;3.05;;
49962;SDS011;36180;57.678;11.910;2022-08-19T13:52:22;4.80;;;3.28;;
49962;SDS011;36180;57.678;11.910;2022-08-19T13:54:49;8.13;;;3.03;;
49962;SDS011;36180;57.678;11.910;2022-08-19T13:57:16;4.53;;;2.90;;
49962;SDS011;36180;57.678;11.910;2022-08-19T13:59:45;5.60;;;2.72;;
49962;SDS011;36180;57.678;11.910;2022-08-19T14:02:12;8.95;;;3.35;;
49962;SDS011;36180;57.678;11.910;2022-08-19T14:04:39;5.70;;;3.10;;
49962;SDS011;36180;57.678;11.910;2022-08-19T14:07:06;6.25;;;3.10;;
49962;SDS011;36180;57.678;11.910;2022-08-19T14:09:34;4.55;;;2.60;;
49962;SDS011;36180;57.678;11.910;2022-08-19T14:12:01;2.80;;;2.60;;
49962;SDS011;36180;57.678;11.910;2022-08-19T14:14:29;5.22;;;3.00;;
49962;SDS011;36180;57.678;11.910;2022-08-19T14:16:58;4.40;;;2.50;;
49962;SDS011;36180;57.678;11.910;2022-08-19T14:19:25;4.35;;;2.88;;
49962;SDS011;36180;57.678;11.910;2022-08-19T14:21:52;4.50;;;3.25;;
49962;SDS011;36180;57.678;11.910;2022-08-19T14:24:19;3.85;;;2.58;;
49962;SDS011;36180;57.678;11.910;2022-08-19T14:26:46;4.55;;;2.90;;
49962;SDS011;36180;57.678;11.910;2022-08-19T14:29:13;6.30;;;2.90;;
49962;SDS011;36180;57.678;11.910;2022-08-19T14:31:41;6.35;;;3.03;;
49962;SDS011;36180;57.678;11.910;2022-08-19T14:34:10;5.72;;;2.50;;